sensor_id;sensor_type;location;lat;lon;timestamp;P1;durP1;ratioP1;P2;durP2;ratioP2
48403;SDS011;34202;52.536;6.042;2023-10-19T00:03:30;10.70;;;8.10;;
48403;SDS011;34202;52.536;6.042;2023-10-19T00:08:32;13.20;;;9.20;;
48403;SDS011;34202;52.536;6.042;2023-10-19T00:13:41;14.80;;;9.30;;
48403;SDS011;34202;52.536;6.042;2023-10-19T00:18:44;12.10;;;9.60;;
48403;SDS011;34202;52.536;6.042;2023-10-19T00:23:49;11.70;;;9.20;;
48403;SDS011;34202;52.536;6.042;2023-10-19T00:28:57;17.10;;;8.90;;
48403;SDS011;34202;52.536;6.042;2023-10-19T00:33:57;11.10;;;9.10;;
48403;SDS011;34202;52.536;6.042;2023-10-19T00:38:58;13.90;;;8.60;;
48403;SDS011;34202;52.536;6.042;2023-10-19T00:44:01;10.60;;;7.90;;
48403;SDS011;34202;52.536;6.042;2023-10-19T00:49:24;9.90;;;8.20;;
48403;SDS011;34202;52.536;6.042;2023-10-19T00:54:28;11.50;;;9.10;;
48403;SDS011;34202;52.536;6.042;2023-10-19T00:59:42;10.20;;;7.40;;
48403;SDS011;34202;52.536;6.042;2023-10-19T01:05:00;8.70;;;7.10;;
48403;SDS011;34202;52.536;6.042;2023-10-19T01:10:08;10.00;;;8.50;;
48403;SDS011;34202;52.536;6.042;2023-10-19T01:15:13;9.40;;;7.90;;
48403;SDS011;34202;52.536;6.042;2023-10-19T01:20:20;10.10;;;8.60;;
48403;SDS011;34202;52.536;6.042;2023-10-19T01:25:23;9.80;;;8.10;;
48403;SDS011;34202;52.536;6.042;2023-10-19T01:30:35;9.70;;;8.70;;
48403;SDS011;34202;52.536;6.042;2023-10-19T01:35:39;10.90;;;8.90;;
48403;SDS011;34202;52.536;6.042;2023-10-19T01:40:59;11.60;;;9.70;;
48403;SDS011;34202;52.536;6.042;2023-10-19T01:46:01;14.10;;;9.60;;
48403;SDS011;34202;52.536;6.042;2023-10-19T01:51:05;11.70;;;9.70;;
48403;SDS011;34202;52.536;6.042;2023-10-19T01:56:06;10.30;;;8.10;;
48403;SDS011;34202;52.536;6.042;2023-10-19T02:01:09;9.70;;;8.80;;
48403;SDS011;34202;52.536;6.042;2023-10-19T02:06:13;11.50;;;9.70;;
48403;SDS011;34202;52.536;6.042;2023-10-19T02:11:19;11.90;;;9.80;;
48403;SDS011;34202;52.536;6.042;2023-10-19T02:16:23;12.10;;;10.50;;
48403;SDS011;34202;52.536;6.042;2023-10-19T02:21:24;12.60;;;10.30;;
48403;SDS011;34202;52.536;6.042;2023-10-19T02:26:31;11.40;;;9.70;;
48403;SDS011;34202;52.536;6.042;2023-10-19T02:31:31;12.10;;;10.90;;
48403;SDS011;34202;52.536;6.042;2023-10-19T02:36:32;13.30;;;10.40;;
48403;SDS011;34202;52.536;6.042;2023-10-19T02:41:34;12.60;;;11.10;;
48403;SDS011;34202;52.536;6.042;2023-10-19T02:46:39;14.00;;;12.60;;
48403;SDS011;34202;52.536;6.042;2023-10-19T02:51:43;14.40;;;11.60;;
48403;SDS011;34202;52.536;6.042;2023-10-19T02:56:47;14.50;;;12.70;;
48403;SDS011;34202;52.536;6.042;2023-10-19T03:01:59;17.10;;;13.30;;
48403;SDS011;34202;52.536;6.042;2023-10-19T03:07:04;15.10;;;13.40;;
48403;SDS011;34202;52.536;6.042;2023-10-19T03:12:06;14.70;;;12.70;;
48403;SDS011;34202;52.536;6.042;2023-10-19T03:17:14;17.30;;;14.30;;
48403;SDS011;34202;52.536;6.042;2023-10-19T03:22:15;19.00;;;15.20;;
48403;SDS011;34202;52.536;6.042;2023-10-19T03:27:17;16.90;;;15.20;;
48403;SDS011;34202;52.536;6.042;2023-10-19T03:32:24;15.70;;;14.10;;
48403;SDS011;34202;52.536;6.042;2023-10-19T03:37:32;16.40;;;14.30;;
48403;SDS011;34202;52.536;6.042;2023-10-19T03:42:36;16.00;;;14.40;;
48403;SDS011;34202;52.536;6.042;2023-10-19T03:47:40;15.40;;;13.90;;
48403;SDS011;34202;52.536;6.042;2023-10-19T03:52:44;15.70;;;14.10;;
48403;SDS011;34202;52.536;6.042;2023-10-19T03:57:45;15.60;;;14.10;;
48403;SDS011;34202;52.536;6.042;2023-10-19T04:02:54;16.30;;;14.80;;
48403;SDS011;34202;52.536;6.042;2023-10-19T04:07:55;17.80;;;16.10;;
48403;SDS011;34202;52.536;6.042;2023-10-19T04:12:57;18.30;;;16.50;;
48403;SDS011;34202;52.536;6.042;2023-10-19T04:18:01;18.30;;;16.50;;
48403;SDS011;34202;52.536;6.042;2023-10-19T04:23:08;20.50;;;18.40;;
48403;SDS011;34202;52.536;6.042;2023-10-19T04:28:14;18.60;;;16.70;;
48403;SDS011;34202;52.536;6.042;2023-10-19T04:33:15;19.90;;;17.90;;
48403;SDS011;34202;52.536;6.042;2023-10-19T04:38:17;20.70;;;18.70;;
48403;SDS011;34202;52.536;6.042;2023-10-19T04:43:18;21.30;;;19.10;;
48403;SDS011;34202;52.536;6.042;2023-10-19T04:48:19;22.00;;;19.60;;
48403;SDS011;34202;52.536;6.042;2023-10-19T04:53:19;21.50;;;19.20;;
48403;SDS011;34202;52.536;6.042;2023-10-19T04:58:20;22.00;;;19.10;;
48403;SDS011;34202;52.536;6.042;2023-10-19T05:03:20;21.00;;;19.00;;
48403;SDS011;34202;52.536;6.042;2023-10-19T05:08:21;21.90;;;19.60;;
48403;SDS011;34202;52.536;6.042;2023-10-19T05:13:25;23.40;;;19.10;;
48403;SDS011;34202;52.536;6.042;2023-10-19T05:18:27;20.70;;;18.30;;
48403;SDS011;34202;52.536;6.042;2023-10-19T05:23:27;23.30;;;19.20;;
48403;SDS011;34202;52.536;6.042;2023-10-19T05:28:28;21.90;;;19.30;;
48403;SDS011;34202;52.536;6.042;2023-10-19T05:33:29;19.90;;;17.90;;
48403;SDS011;34202;52.536;6.042;2023-10-19T05:38:29;21.10;;;18.80;;
48403;SDS011;34202;52.536;6.042;2023-10-19T05:43:32;20.20;;;18.10;;
48403;SDS011;34202;52.536;6.042;2023-10-19T05:48:34;20.20;;;18.00;;
48403;SDS011;34202;52.536;6.042;2023-10-19T05:53:35;19.10;;;16.50;;
48403;SDS011;34202;52.536;6.042;2023-10-19T05:58:37;21.50;;;17.60;;
48403;SDS011;34202;52.536;6.042;2023-10-19T06:03:37;18.80;;;16.90;;
48403;SDS011;34202;52.536;6.042;2023-10-19T06:08:40;23.20;;;17.80;;
48403;SDS011;34202;52.536;6.042;2023-10-19T06:13:41;18.30;;;16.30;;
48403;SDS011;34202;52.536;6.042;2023-10-19T06:18:43;19.10;;;17.20;;
48403;SDS011;34202;52.536;6.042;2023-10-19T06:23:43;18.80;;;15.10;;
48403;SDS011;34202;52.536;6.042;2023-10-19T06:28:44;16.40;;;13.50;;
48403;SDS011;34202;52.536;6.042;2023-10-19T06:33:45;15.90;;;14.30;;
48403;SDS011;34202;52.536;6.042;2023-10-19T06:38:45;17.10;;;13.80;;
48403;SDS011;34202;52.536;6.042;2023-10-19T06:43:46;17.50;;;14.50;;
48403;SDS011;34202;52.536;6.042;2023-10-19T06:48:46;19.40;;;13.40;;
48403;SDS011;34202;52.536;6.042;2023-10-19T06:53:47;15.50;;;13.30;;
48403;SDS011;34202;52.536;6.042;2023-10-19T06:58:47;16.30;;;13.10;;
48403;SDS011;34202;52.536;6.042;2023-10-19T07:03:48;13.80;;;11.70;;
48403;SDS011;34202;52.536;6.042;2023-10-19T07:08:48;17.50;;;11.90;;
48403;SDS011;34202;52.536;6.042;2023-10-19T07:13:49;15.50;;;12.00;;
48403;SDS011;34202;52.536;6.042;2023-10-19T07:18:49;14.90;;;12.10;;
48403;SDS011;34202;52.536;6.042;2023-10-19T07:23:50;14.80;;;10.80;;
48403;SDS011;34202;52.536;6.042;2023-10-19T07:28:53;12.00;;;10.30;;
48403;SDS011;34202;52.536;6.042;2023-10-19T07:33:53;13.00;;;10.10;;
48403;SDS011;34202;52.536;6.042;2023-10-19T07:38:57;12.80;;;10.40;;
48403;SDS011;34202;52.536;6.042;2023-10-19T07:43:57;14.60;;;9.10;;
48403;SDS011;34202;52.536;6.042;2023-10-19T07:48:58;14.30;;;9.40;;
48403;SDS011;34202;52.536;6.042;2023-10-19T07:54:00;12.70;;;8.40;;
48403;SDS011;34202;52.536;6.042;2023-10-19T07:59:01;9.40;;;8.40;;
48403;SDS011;34202;52.536;6.042;2023-10-19T08:04:01;12.00;;;8.50;;
48403;SDS011;34202;52.536;6.042;2023-10-19T08:09:02;9.30;;;7.90;;
48403;SDS011;34202;52.536;6.042;2023-10-19T08:14:04;12.30;;;7.20;;
48403;SDS011;34202;52.536;6.042;2023-10-19T08:19:05;13.60;;;7.50;;
48403;SDS011;34202;52.536;6.042;2023-10-19T08:24:07;13.80;;;8.50;;
48403;SDS011;34202;52.536;6.042;2023-10-19T08:29:13;10.90;;;7.50;;
48403;SDS011;34202;52.536;6.042;2023-10-19T08:34:14;10.20;;;7.10;;
48403;SDS011;34202;52.536;6.042;2023-10-19T08:39:14;10.10;;;8.00;;
48403;SDS011;34202;52.536;6.042;2023-10-19T08:44:14;13.50;;;6.60;;
48403;SDS011;34202;52.536;6.042;2023-10-19T08:49:19;7.30;;;6.00;;
48403;SDS011;34202;52.536;6.042;2023-10-19T08:54:20;9.60;;;5.70;;
48403;SDS011;34202;52.536;6.042;2023-10-19T08:59:21;8.70;;;5.50;;
48403;SDS011;34202;52.536;6.042;2023-10-19T09:04:21;10.10;;;6.20;;
48403;SDS011;34202;52.536;6.042;2023-10-19T09:09:22;9.20;;;5.80;;
48403;SDS011;34202;52.536;6.042;2023-10-19T09:14:32;8.00;;;5.50;;
48403;SDS011;34202;52.536;6.042;2023-10-19T09:24:37;7.60;;;4.80;;
48403;SDS011;34202;52.536;6.042;2023-10-19T09:29:38;7.20;;;4.90;;
48403;SDS011;34202;52.536;6.042;2023-10-19T09:34:40;9.00;;;4.70;;
48403;SDS011;34202;52.536;6.042;2023-10-19T09:39:44;7.90;;;5.60;;
48403;SDS011;34202;52.536;6.042;2023-10-19T09:44:48;6.70;;;5.10;;
48403;SDS011;34202;52.536;6.042;2023-10-19T09:49:58;8.80;;;4.60;;
48403;SDS011;34202;52.536;6.042;2023-10-19T09:55:17;6.90;;;4.80;;
48403;SDS011;34202;52.536;6.042;2023-10-19T10:00:23;8.40;;;4.90;;
48403;SDS011;34202;52.536;6.042;2023-10-19T10:10:46;10.70;;;4.80;;
48403;SDS011;34202;52.536;6.042;2023-10-19T10:15:47;10.50;;;4.70;;
48403;SDS011;34202;52.536;6.042;2023-10-19T10:20:48;7.00;;;4.20;;
48403;SDS011;34202;52.536;6.042;2023-10-19T10:26:05;12.10;;;3.80;;
48403;SDS011;34202;52.536;6.042;2023-10-19T10:31:19;5.60;;;3.70;;
48403;SDS011;34202;52.536;6.042;2023-10-19T10:36:21;6.50;;;3.70;;
48403;SDS011;34202;52.536;6.042;2023-10-19T10:41:25;8.70;;;3.40;;
48403;SDS011;34202;52.536;6.042;2023-10-19T10:46:28;9.60;;;4.80;;
48403;SDS011;34202;52.536;6.042;2023-10-19T10:51:29;9.40;;;3.60;;
48403;SDS011;34202;52.536;6.042;2023-10-19T10:56:29;13.60;;;3.80;;
48403;SDS011;34202;52.536;6.042;2023-10-19T11:01:32;9.70;;;2.60;;
48403;SDS011;34202;52.536;6.042;2023-10-19T11:06:45;8.00;;;3.20;;
48403;SDS011;34202;52.536;6.042;2023-10-19T11:11:55;8.50;;;3.10;;
48403;SDS011;34202;52.536;6.042;2023-10-19T11:16:55;9.90;;;2.30;;
48403;SDS011;34202;52.536;6.042;2023-10-19T11:22:12;5.00;;;2.30;;
48403;SDS011;34202;52.536;6.042;2023-10-19T11:27:13;6.40;;;1.70;;
48403;SDS011;34202;52.536;6.042;2023-10-19T11:32:35;7.80;;;1.60;;
48403;SDS011;34202;52.536;6.042;2023-10-19T11:37:45;11.30;;;2.90;;
48403;SDS011;34202;52.536;6.042;2023-10-19T11:42:46;4.20;;;1.60;;
48403;SDS011;34202;52.536;6.042;2023-10-19T11:47:47;8.70;;;1.80;;
48403;SDS011;34202;52.536;6.042;2023-10-19T11:52:49;7.60;;;1.60;;
48403;SDS011;34202;52.536;6.042;2023-10-19T11:57:49;6.00;;;1.60;;
48403;SDS011;34202;52.536;6.042;2023-10-19T12:02:49;4.90;;;2.00;;
48403;SDS011;34202;52.536;6.042;2023-10-19T12:07:50;5.40;;;1.80;;
48403;SDS011;34202;52.536;6.042;2023-10-19T12:12:52;7.50;;;2.50;;
48403;SDS011;34202;52.536;6.042;2023-10-19T12:17:53;5.70;;;1.70;;
48403;SDS011;34202;52.536;6.042;2023-10-19T12:22:54;6.40;;;1.60;;
48403;SDS011;34202;52.536;6.042;2023-10-19T12:27:57;8.60;;;1.90;;
48403;SDS011;34202;52.536;6.042;2023-10-19T12:33:00;8.50;;;1.90;;
48403;SDS011;34202;52.536;6.042;2023-10-19T12:38:01;4.30;;;1.40;;
48403;SDS011;34202;52.536;6.042;2023-10-19T12:43:06;5.10;;;1.30;;
48403;SDS011;34202;52.536;6.042;2023-10-19T12:48:07;5.30;;;1.30;;
48403;SDS011;34202;52.536;6.042;2023-10-19T12:53:10;7.60;;;2.20;;
48403;SDS011;34202;52.536;6.042;2023-10-19T12:58:11;5.90;;;1.50;;
48403;SDS011;34202;52.536;6.042;2023-10-19T13:03:11;7.40;;;1.80;;
48403;SDS011;34202;52.536;6.042;2023-10-19T13:08:14;6.20;;;1.30;;
48403;SDS011;34202;52.536;6.042;2023-10-19T13:13:14;6.50;;;1.50;;
48403;SDS011;34202;52.536;6.042;2023-10-19T13:18:16;4.40;;;1.10;;
48403;SDS011;34202;52.536;6.042;2023-10-19T13:28:21;5.60;;;1.40;;
48403;SDS011;34202;52.536;6.042;2023-10-19T13:33:22;3.80;;;1.60;;
48403;SDS011;34202;52.536;6.042;2023-10-19T13:38:24;6.80;;;1.30;;
48403;SDS011;34202;52.536;6.042;2023-10-19T13:43:24;6.30;;;1.40;;
48403;SDS011;34202;52.536;6.042;2023-10-19T13:48:24;4.00;;;1.60;;
48403;SDS011;34202;52.536;6.042;2023-10-19T13:53:25;7.70;;;1.30;;
48403;SDS011;34202;52.536;6.042;2023-10-19T13:58:26;4.50;;;1.30;;
48403;SDS011;34202;52.536;6.042;2023-10-19T14:03:26;4.10;;;1.10;;
48403;SDS011;34202;52.536;6.042;2023-10-19T14:08:27;6.60;;;1.40;;
48403;SDS011;34202;52.536;6.042;2023-10-19T14:13:27;4.50;;;1.40;;
48403;SDS011;34202;52.536;6.042;2023-10-19T14:18:28;5.10;;;1.60;;
48403;SDS011;34202;52.536;6.042;2023-10-19T14:23:28;3.10;;;1.60;;
48403;SDS011;34202;52.536;6.042;2023-10-19T14:28:28;4.00;;;1.50;;
48403;SDS011;34202;52.536;6.042;2023-10-19T14:33:29;5.50;;;1.70;;
48403;SDS011;34202;52.536;6.042;2023-10-19T14:38:30;6.90;;;1.60;;
48403;SDS011;34202;52.536;6.042;2023-10-19T14:43:31;5.00;;;1.60;;
48403;SDS011;34202;52.536;6.042;2023-10-19T14:48:32;6.50;;;1.70;;
48403;SDS011;34202;52.536;6.042;2023-10-19T14:53:35;5.20;;;1.70;;
48403;SDS011;34202;52.536;6.042;2023-10-19T14:58:35;3.90;;;1.80;;
48403;SDS011;34202;52.536;6.042;2023-10-19T15:03:36;6.30;;;1.90;;
48403;SDS011;34202;52.536;6.042;2023-10-19T15:08:37;7.90;;;2.30;;
48403;SDS011;34202;52.536;6.042;2023-10-19T15:13:38;5.50;;;2.00;;
48403;SDS011;34202;52.536;6.042;2023-10-19T15:18:38;4.50;;;2.20;;
48403;SDS011;34202;52.536;6.042;2023-10-19T15:23:39;7.80;;;2.90;;
48403;SDS011;34202;52.536;6.042;2023-10-19T15:28:41;9.60;;;2.60;;
48403;SDS011;34202;52.536;6.042;2023-10-19T15:33:41;7.50;;;2.80;;
48403;SDS011;34202;52.536;6.042;2023-10-19T15:38:42;8.60;;;3.00;;
48403;SDS011;34202;52.536;6.042;2023-10-19T15:43:43;11.00;;;3.60;;
48403;SDS011;34202;52.536;6.042;2023-10-19T15:48:44;9.20;;;4.90;;
48403;SDS011;34202;52.536;6.042;2023-10-19T15:53:44;13.40;;;5.20;;
48403;SDS011;34202;52.536;6.042;2023-10-19T15:58:45;8.20;;;5.70;;
48403;SDS011;34202;52.536;6.042;2023-10-19T16:03:46;10.00;;;6.90;;
48403;SDS011;34202;52.536;6.042;2023-10-19T16:08:46;15.10;;;8.20;;
48403;SDS011;34202;52.536;6.042;2023-10-19T16:13:46;12.10;;;7.10;;
48403;SDS011;34202;52.536;6.042;2023-10-19T16:18:47;11.50;;;7.80;;
48403;SDS011;34202;52.536;6.042;2023-10-19T16:23:47;11.90;;;7.70;;
48403;SDS011;34202;52.536;6.042;2023-10-19T16:28:49;12.50;;;8.90;;
48403;SDS011;34202;52.536;6.042;2023-10-19T16:33:49;12.30;;;9.90;;
48403;SDS011;34202;52.536;6.042;2023-10-19T16:38:50;21.20;;;10.10;;
48403;SDS011;34202;52.536;6.042;2023-10-19T16:43:51;18.50;;;11.40;;
48403;SDS011;34202;52.536;6.042;2023-10-19T16:48:52;13.60;;;12.20;;
48403;SDS011;34202;52.536;6.042;2023-10-19T16:53:53;15.30;;;13.70;;
48403;SDS011;34202;52.536;6.042;2023-10-19T16:58:53;16.50;;;13.40;;
48403;SDS011;34202;52.536;6.042;2023-10-19T17:03:54;20.30;;;16.20;;
48403;SDS011;34202;52.536;6.042;2023-10-19T17:08:56;20.70;;;16.30;;
48403;SDS011;34202;52.536;6.042;2023-10-19T17:14:11;20.20;;;16.90;;
48403;SDS011;34202;52.536;6.042;2023-10-19T17:19:12;19.60;;;17.40;;
48403;SDS011;34202;52.536;6.042;2023-10-19T17:24:12;24.50;;;17.20;;
48403;SDS011;34202;52.536;6.042;2023-10-19T17:29:12;21.80;;;19.50;;
48403;SDS011;34202;52.536;6.042;2023-10-19T17:34:13;25.20;;;19.90;;
48403;SDS011;34202;52.536;6.042;2023-10-19T17:39:13;25.30;;;20.10;;
48403;SDS011;34202;52.536;6.042;2023-10-19T17:44:14;23.70;;;19.30;;
48403;SDS011;34202;52.536;6.042;2023-10-19T17:49:15;25.30;;;21.30;;
48403;SDS011;34202;52.536;6.042;2023-10-19T17:54:15;25.40;;;19.40;;
48403;SDS011;34202;52.536;6.042;2023-10-19T17:59:16;25.70;;;18.60;;
48403;SDS011;34202;52.536;6.042;2023-10-19T18:04:16;21.30;;;16.80;;
48403;SDS011;34202;52.536;6.042;2023-10-19T18:09:20;24.20;;;18.80;;
48403;SDS011;34202;52.536;6.042;2023-10-19T18:14:20;20.20;;;17.20;;
48403;SDS011;34202;52.536;6.042;2023-10-19T18:19:20;25.50;;;18.70;;
48403;SDS011;34202;52.536;6.042;2023-10-19T18:24:21;23.90;;;19.20;;
48403;SDS011;34202;52.536;6.042;2023-10-19T18:29:22;24.60;;;17.60;;
48403;SDS011;34202;52.536;6.042;2023-10-19T18:34:23;25.90;;;19.80;;
48403;SDS011;34202;52.536;6.042;2023-10-19T18:39:25;27.40;;;20.10;;
48403;SDS011;34202;52.536;6.042;2023-10-19T18:44:26;26.90;;;20.10;;
48403;SDS011;34202;52.536;6.042;2023-10-19T18:49:26;23.90;;;18.20;;
48403;SDS011;34202;52.536;6.042;2023-10-19T18:54:27;29.10;;;21.80;;
48403;SDS011;34202;52.536;6.042;2023-10-19T18:59:27;25.00;;;20.60;;
48403;SDS011;34202;52.536;6.042;2023-10-19T19:04:28;25.00;;;17.60;;
48403;SDS011;34202;52.536;6.042;2023-10-19T19:09:30;28.30;;;22.80;;
48403;SDS011;34202;52.536;6.042;2023-10-19T19:14:30;26.70;;;18.90;;
48403;SDS011;34202;52.536;6.042;2023-10-19T19:19:31;24.50;;;18.20;;
48403;SDS011;34202;52.536;6.042;2023-10-19T19:24:32;29.60;;;22.50;;
48403;SDS011;34202;52.536;6.042;2023-10-19T19:29:36;31.80;;;21.00;;
48403;SDS011;34202;52.536;6.042;2023-10-19T19:34:37;26.90;;;22.30;;
48403;SDS011;34202;52.536;6.042;2023-10-19T19:39:37;32.70;;;22.80;;
48403;SDS011;34202;52.536;6.042;2023-10-19T19:44:38;31.00;;;22.10;;
48403;SDS011;34202;52.536;6.042;2023-10-19T19:49:39;30.10;;;22.30;;
48403;SDS011;34202;52.536;6.042;2023-10-19T19:54:39;27.40;;;20.60;;
48403;SDS011;34202;52.536;6.042;2023-10-19T19:59:40;26.20;;;20.30;;
48403;SDS011;34202;52.536;6.042;2023-10-19T20:04:40;25.40;;;20.00;;
48403;SDS011;34202;52.536;6.042;2023-10-19T20:09:40;27.00;;;19.50;;
48403;SDS011;34202;52.536;6.042;2023-10-19T20:14:41;24.50;;;20.00;;
48403;SDS011;34202;52.536;6.042;2023-10-19T20:19:41;28.00;;;20.10;;
48403;SDS011;34202;52.536;6.042;2023-10-19T20:24:42;28.10;;;22.50;;
48403;SDS011;34202;52.536;6.042;2023-10-19T20:29:42;32.20;;;22.40;;
48403;SDS011;34202;52.536;6.042;2023-10-19T20:34:43;32.20;;;22.80;;
48403;SDS011;34202;52.536;6.042;2023-10-19T20:39:43;27.10;;;22.40;;
48403;SDS011;34202;52.536;6.042;2023-10-19T20:44:44;22.90;;;19.80;;
48403;SDS011;34202;52.536;6.042;2023-10-19T20:49:44;32.90;;;21.90;;
48403;SDS011;34202;52.536;6.042;2023-10-19T20:54:45;30.70;;;21.40;;
48403;SDS011;34202;52.536;6.042;2023-10-19T20:59:45;28.00;;;22.00;;
48403;SDS011;34202;52.536;6.042;2023-10-19T21:04:46;27.40;;;21.60;;
48403;SDS011;34202;52.536;6.042;2023-10-19T21:09:46;26.80;;;20.00;;
48403;SDS011;34202;52.536;6.042;2023-10-19T21:14:47;26.40;;;21.40;;
48403;SDS011;34202;52.536;6.042;2023-10-19T21:19:48;27.50;;;21.70;;
48403;SDS011;34202;52.536;6.042;2023-10-19T21:24:48;23.30;;;19.70;;
48403;SDS011;34202;52.536;6.042;2023-10-19T21:29:48;31.80;;;23.00;;
48403;SDS011;34202;52.536;6.042;2023-10-19T21:34:49;28.30;;;20.70;;
48403;SDS011;34202;52.536;6.042;2023-10-19T21:39:50;32.60;;;22.50;;
48403;SDS011;34202;52.536;6.042;2023-10-19T21:44:50;27.00;;;20.10;;
48403;SDS011;34202;52.536;6.042;2023-10-19T21:49:51;28.20;;;23.00;;
48403;SDS011;34202;52.536;6.042;2023-10-19T21:54:52;28.50;;;22.70;;
48403;SDS011;34202;52.536;6.042;2023-10-19T21:59:54;23.80;;;20.70;;
48403;SDS011;34202;52.536;6.042;2023-10-19T22:04:54;25.90;;;20.30;;
48403;SDS011;34202;52.536;6.042;2023-10-19T22:09:55;30.00;;;22.70;;
48403;SDS011;34202;52.536;6.042;2023-10-19T22:14:55;26.00;;;19.20;;
48403;SDS011;34202;52.536;6.042;2023-10-19T22:19:56;29.00;;;21.70;;
48403;SDS011;34202;52.536;6.042;2023-10-19T22:24:57;30.80;;;22.30;;
48403;SDS011;34202;52.536;6.042;2023-10-19T22:29:58;31.80;;;22.50;;
48403;SDS011;34202;52.536;6.042;2023-10-19T22:35:01;32.10;;;23.80;;
48403;SDS011;34202;52.536;6.042;2023-10-19T22:40:01;29.40;;;22.20;;
48403;SDS011;34202;52.536;6.042;2023-10-19T22:45:02;30.90;;;21.20;;
48403;SDS011;34202;52.536;6.042;2023-10-19T22:50:04;34.20;;;22.60;;
48403;SDS011;34202;52.536;6.042;2023-10-19T22:55:06;30.30;;;20.60;;
48403;SDS011;34202;52.536;6.042;2023-10-19T23:00:08;30.50;;;22.10;;
48403;SDS011;34202;52.536;6.042;2023-10-19T23:05:16;33.10;;;22.40;;
48403;SDS011;34202;52.536;6.042;2023-10-19T23:10:17;29.40;;;20.50;;
48403;SDS011;34202;52.536;6.042;2023-10-19T23:15:19;31.50;;;20.90;;
48403;SDS011;34202;52.536;6.042;2023-10-19T23:20:31;34.20;;;21.80;;
48403;SDS011;34202;52.536;6.042;2023-10-19T23:25:32;32.90;;;22.70;;
48403;SDS011;34202;52.536;6.042;2023-10-19T23:30:34;30.50;;;20.70;;
48403;SDS011;34202;52.536;6.042;2023-10-19T23:35:35;28.60;;;19.80;;
48403;SDS011;34202;52.536;6.042;2023-10-19T23:40:36;31.50;;;22.20;;
48403;SDS011;34202;52.536;6.042;2023-10-19T23:45:37;33.60;;;22.80;;
48403;SDS011;34202;52.536;6.042;2023-10-19T23:50:38;27.80;;;19.60;;
48403;SDS011;34202;52.536;6.042;2023-10-19T23:55:39;28.50;;;20.00;;
